Time;durP1;ratioP1;P1;durP2;ratioP2;P2;SDS_P1;SDS_P2;PMS_P1;PMS_P2;Temp;Humidity;BMP_temperature;BMP_pressure;BME280_temperature;BME280_humidity;BME280_pressure;Samples;Min_cycle;Max_cycle;Signal;HPM_P1;HPM_P2
2023/06/25 00:01:34;;;;;;;5.45;3.50;;;18.20;99.90;;;;;;4996101;28;20034;-64
2023/06/25 00:03:59;;;;;;;5.85;2.92;;;18.10;99.90;;;;;;4997465;28;20037;-64
2023/06/25 00:06:25;;;;;;;6.68;3.38;;;18.10;99.90;;;;;;5002209;28;20484;-64
2023/06/25 00:08:51;;;;;;;5.13;3.22;;;18.00;99.90;;;;;;5001793;28;20387;-63
2023/06/25 00:11:16;;;;;;;8.07;3.30;;;18.00;99.90;;;;;;5007188;28;20045;-64
2023/06/25 00:13:42;;;;;;;6.00;3.40;;;17.90;99.90;;;;;;5004706;28;20022;-64
2023/06/25 00:16:07;;;;;;;7.43;3.50;;;17.90;99.90;;;;;;4990546;28;20031;-65
2023/06/25 00:18:34;;;;;;;5.25;3.30;;;17.90;99.90;;;;;;5001136;28;20557;-63
2023/06/25 00:21:01;;;;;;;6.25;3.30;;;17.90;99.90;;;;;;4994188;28;20065;-63
2023/06/25 00:23:27;;;;;;;5.45;3.15;;;17.90;99.90;;;;;;5006179;28;20129;-64
2023/06/25 00:25:52;;;;;;;6.05;3.72;;;17.90;99.90;;;;;;5002454;28;20074;-63
2023/06/25 00:28:18;;;;;;;5.78;3.03;;;17.90;99.90;;;;;;4986067;28;20014;-65
2023/06/25 00:30:43;;;;;;;8.32;3.58;;;17.90;99.90;;;;;;4999645;28;20108;-64
2023/06/25 00:33:09;;;;;;;5.63;3.40;;;17.90;99.90;;;;;;4983655;28;20038;-64
2023/06/25 00:36:05;;;;;;;8.15;3.83;;;17.90;99.90;;;;;;5005192;28;20395;-65
2023/06/25 00:38:32;;;;;;;4.97;3.25;;;17.90;99.90;;;;;;4988001;28;20549;-63
2023/06/25 00:40:57;;;;;;;6.72;3.58;;;17.90;99.90;;;;;;5007651;28;20092;-64
2023/06/25 00:43:23;;;;;;;5.93;3.13;;;18.00;99.90;;;;;;5006264;28;20483;-61
2023/06/25 00:45:48;;;;;;;6.65;3.28;;;17.90;99.90;;;;;;4995555;28;20027;-64
2023/06/25 00:48:14;;;;;;;6.72;3.58;;;17.90;99.90;;;;;;4998802;28;20034;-64
2023/06/25 00:50:39;;;;;;;5.40;3.13;;;17.90;99.90;;;;;;5000564;28;20038;-64
2023/06/25 00:53:08;;;;;;;8.73;3.78;;;17.80;99.90;;;;;;5007658;28;20034;-65
2023/06/25 00:55:34;;;;;;;5.32;3.65;;;17.80;99.90;;;;;;5005032;28;20514;-63
2023/06/25 00:58:00;;;;;;;6.65;3.72;;;17.80;99.90;;;;;;5006593;28;20039;-64
2023/06/25 01:00:28;;;;;;;8.02;4.07;;;17.70;99.90;;;;;;4998105;28;20034;-65
2023/06/25 01:03:16;;;;;;;8.75;4.85;;;17.80;99.90;;;;;;5001537;28;20026;-64
2023/06/25 01:06:00;;;;;;;7.00;4.18;;;17.80;99.90;;;;;;5002534;28;20035;-60
2023/06/25 01:08:28;;;;;;;6.95;4.28;;;17.80;99.90;;;;;;4989436;28;20030;-65
2023/06/25 01:10:55;;;;;;;7.85;4.03;;;17.80;99.90;;;;;;4995829;28;20018;-64
2023/06/25 01:13:20;;;;;;;7.90;4.15;;;17.80;99.90;;;;;;4999683;28;20045;-58
2023/06/25 01:15:47;;;;;;;5.57;3.85;;;17.80;99.90;;;;;;4997928;28;20508;-64
2023/06/25 01:18:14;;;;;;;6.13;3.70;;;17.80;99.90;;;;;;5006945;28;20511;-65
2023/06/25 01:20:40;;;;;;;6.70;4.05;;;17.80;99.90;;;;;;5004613;28;20034;-63
2023/06/25 01:23:09;;;;;;;5.53;4.30;;;17.80;99.90;;;;;;4994179;28;20118;-64
2023/06/25 01:25:38;;;;;;;9.10;5.03;;;17.80;99.90;;;;;;5005812;28;20125;-63
2023/06/25 01:28:05;;;;;;;5.82;4.28;;;17.80;99.90;;;;;;5008156;28;20658;-64
2023/06/25 01:30:31;;;;;;;6.15;4.28;;;17.90;99.90;;;;;;5007419;28;20029;-64
2023/06/25 01:32:58;;;;;;;7.20;3.92;;;17.90;99.90;;;;;;4996988;28;20026;-65
2023/06/25 01:35:24;;;;;;;7.45;4.70;;;17.90;99.90;;;;;;5000898;28;20076;-60
2023/06/25 01:37:50;;;;;;;6.72;3.67;;;17.90;99.90;;;;;;4997066;28;20535;-64
2023/06/25 01:40:16;;;;;;;6.47;4.00;;;17.90;99.90;;;;;;4993358;28;20154;-64
2023/06/25 01:42:43;;;;;;;6.35;4.30;;;17.80;99.90;;;;;;4994329;28;20015;-65
2023/06/25 01:45:09;;;;;;;6.72;5.03;;;17.70;99.90;;;;;;5002961;28;20488;-63
2023/06/25 01:47:37;;;;;;;6.35;4.18;;;17.70;99.90;;;;;;5006207;28;20022;-64
2023/06/25 01:50:04;;;;;;;6.00;3.75;;;17.60;99.90;;;;;;4999905;28;20149;-64
2023/06/25 01:52:29;;;;;;;6.60;4.07;;;17.50;99.90;;;;;;4996577;28;20069;-64
2023/06/25 01:54:55;;;;;;;7.00;4.80;;;17.40;99.90;;;;;;4993809;28;20112;-63
2023/06/25 01:57:21;;;;;;;6.10;3.70;;;17.40;99.90;;;;;;5005342;28;20018;-64
2023/06/25 01:59:47;;;;;;;7.45;3.90;;;17.30;99.90;;;;;;5005939;28;20113;-64
2023/06/25 02:02:12;;;;;;;7.85;4.90;;;17.20;99.90;;;;;;4996381;28;20105;-65
2023/06/25 02:04:38;;;;;;;10.40;4.68;;;17.10;99.90;;;;;;4997740;28;20097;-63
2023/06/25 02:07:04;;;;;;;6.95;4.20;;;17.10;99.90;;;;;;4997935;28;20042;-63
2023/06/25 02:09:30;;;;;;;6.72;4.43;;;17.00;99.90;;;;;;5000598;28;20022;-63
2023/06/25 02:11:55;;;;;;;9.98;4.80;;;17.00;99.90;;;;;;5006170;28;20022;-64
2023/06/25 02:14:21;;;;;;;6.60;4.45;;;17.00;99.90;;;;;;5003954;28;20026;-63
2023/06/25 02:16:46;;;;;;;7.20;4.65;;;17.00;99.90;;;;;;5011982;28;20046;-64
2023/06/25 02:19:12;;;;;;;6.60;4.30;;;17.00;99.90;;;;;;4995511;28;20041;-63
2023/06/25 02:21:38;;;;;;;9.15;4.00;;;16.90;99.90;;;;;;4999262;28;20025;-65
2023/06/25 02:24:04;;;;;;;8.48;4.40;;;16.90;99.90;;;;;;5002990;28;20081;-64
2023/06/25 02:26:29;;;;;;;8.93;4.65;;;16.80;99.90;;;;;;5001577;28;20530;-64
2023/06/25 02:28:55;;;;;;;6.43;4.53;;;16.80;99.90;;;;;;5004542;28;20125;-63
2023/06/25 02:31:21;;;;;;;8.15;4.47;;;16.70;99.90;;;;;;5006457;28;20364;-64
2023/06/25 02:33:47;;;;;;;8.23;4.43;;;16.70;99.90;;;;;;4996737;28;20014;-64
2023/06/25 02:36:12;;;;;;;7.18;3.80;;;16.60;99.90;;;;;;4992390;28;20054;-65
2023/06/25 02:38:38;;;;;;;9.27;4.68;;;16.60;99.90;;;;;;5004952;28;20029;-64
2023/06/25 02:41:03;;;;;;;8.43;4.80;;;16.60;99.90;;;;;;5006234;28;20042;-64
2023/06/25 02:43:29;;;;;;;8.60;4.82;;;16.70;99.90;;;;;;5005950;28;20129;-64
2023/06/25 02:45:55;;;;;;;6.50;4.20;;;16.70;99.90;;;;;;5004865;28;20403;-65
2023/06/25 02:48:20;;;;;;;7.38;5.15;;;16.60;99.90;;;;;;5000498;28;20041;-64
2023/06/25 02:50:46;;;;;;;9.40;4.97;;;16.70;99.90;;;;;;4999684;28;20033;-64
2023/06/25 02:53:12;;;;;;;9.13;5.00;;;16.70;99.90;;;;;;5016151;23;20126;-65
2023/06/25 02:55:37;;;;;;;9.32;5.32;;;16.70;99.90;;;;;;5002237;28;20497;-66
2023/06/25 02:58:03;;;;;;;7.53;4.78;;;16.70;99.90;;;;;;5003185;28;20026;-65
2023/06/25 03:00:29;;;;;;;9.07;4.80;;;16.70;99.90;;;;;;5000943;28;20395;-64
2023/06/25 03:02:54;;;;;;;8.98;4.90;;;16.70;99.90;;;;;;5010174;28;20022;-65
2023/06/25 03:05:20;;;;;;;7.72;5.68;;;16.70;99.90;;;;;;4995867;28;20507;-66
2023/06/25 03:07:54;;;;;;;6.60;4.78;;;16.70;99.90;;;;;;4998082;28;20022;-65
2023/06/25 03:10:25;;;;;;;8.23;5.15;;;16.70;99.90;;;;;;4997871;28;20076;-65
2023/06/25 03:12:51;;;;;;;9.50;5.03;;;16.70;99.90;;;;;;4985767;28;20025;-65
2023/06/25 03:15:19;;;;;;;7.05;5.15;;;16.80;99.90;;;;;;5007393;28;20233;-65
2023/06/25 03:17:45;;;;;;;9.57;5.40;;;16.80;99.90;;;;;;4997791;28;20092;-65
2023/06/25 03:20:12;;;;;;;7.10;5.30;;;16.80;99.90;;;;;;4997414;28;20049;-65
2023/06/25 03:22:37;;;;;;;8.43;5.05;;;16.80;99.90;;;;;;5004651;28;20062;-66
2023/06/25 03:25:03;;;;;;;9.20;5.15;;;16.80;99.90;;;;;;5007305;28;20057;-66
2023/06/25 03:27:33;;;;;;;8.57;5.25;;;16.80;99.90;;;;;;5006592;28;20025;-66
2023/06/25 03:29:59;;;;;;;8.57;5.30;;;16.80;99.90;;;;;;5000399;28;20420;-66
2023/06/25 03:32:24;;;;;;;7.57;5.40;;;16.80;99.90;;;;;;5000865;28;20022;-66
2023/06/25 03:34:50;;;;;;;11.25;5.60;;;16.80;99.90;;;;;;4993706;28;20502;-65
2023/06/25 03:37:16;;;;;;;7.80;4.97;;;16.80;99.90;;;;;;5008110;28;20509;-64
2023/06/25 03:39:41;;;;;;;8.32;5.22;;;16.90;99.90;;;;;;5003132;28;20030;-66
2023/06/25 03:42:07;;;;;;;8.75;5.40;;;16.90;99.90;;;;;;5007709;28;20434;-65
2023/06/25 03:44:32;;;;;;;8.05;5.68;;;16.90;99.90;;;;;;5000767;28;20033;-66
2023/06/25 03:46:58;;;;;;;8.45;5.57;;;16.90;99.90;;;;;;4986777;28;20034;-66
2023/06/25 03:49:24;;;;;;;9.32;4.95;;;16.90;99.90;;;;;;5001227;28;20025;-66
2023/06/25 03:51:49;;;;;;;9.52;5.60;;;17.00;99.90;;;;;;5001476;28;20452;-67
2023/06/25 03:54:15;;;;;;;8.38;5.28;;;17.00;99.90;;;;;;5005235;28;20026;-66
2023/06/25 03:56:41;;;;;;;14.45;5.60;;;17.10;99.90;;;;;;5004221;28;20069;-66
2023/06/25 03:59:06;;;;;;;9.88;5.15;;;17.20;99.90;;;;;;5007276;28;20034;-66
2023/06/25 04:01:32;;;;;;;7.28;5.22;;;17.30;99.90;;;;;;5000382;28;20446;-66
2023/06/25 04:03:57;;;;;;;10.57;5.43;;;17.30;99.90;;;;;;4991683;28;20058;-66
2023/06/25 04:06:23;;;;;;;7.03;4.80;;;17.40;99.90;;;;;;5003875;28;20026;-66
2023/06/25 04:08:48;;;;;;;8.15;5.13;;;17.50;99.90;;;;;;5003525;28;20026;-66
2023/06/25 04:11:14;;;;;;;8.13;4.75;;;17.60;99.90;;;;;;5008217;28;20092;-66
2023/06/25 04:13:39;;;;;;;8.90;5.05;;;17.60;99.90;;;;;;5001962;28;20065;-67
2023/06/25 04:16:07;;;;;;;8.40;4.93;;;17.70;99.90;;;;;;4999363;28;20088;-67
2023/06/25 04:18:32;;;;;;;8.10;5.25;;;17.80;99.90;;;;;;5008813;28;20391;-67
2023/06/25 04:20:58;;;;;;;11.15;4.93;;;17.90;99.90;;;;;;5000540;28;20026;-67
2023/06/25 04:23:24;;;;;;;7.60;4.85;;;17.90;99.90;;;;;;5008265;28;20025;-66
2023/06/25 04:25:49;;;;;;;10.15;5.13;;;18.00;99.90;;;;;;5002871;28;20019;-66
2023/06/25 04:28:16;;;;;;;12.25;6.03;;;18.10;99.90;;;;;;4990973;28;20027;-67
2023/06/25 04:30:42;;;;;;;9.30;4.80;;;18.20;99.90;;;;;;4992766;28;20529;-66
2023/06/25 04:33:07;;;;;;;8.82;4.93;;;18.40;99.90;;;;;;4999371;28;20030;-67
2023/06/25 04:35:33;;;;;;;7.43;5.60;;;18.50;99.90;;;;;;5008344;28;20022;-66
2023/06/25 04:37:59;;;;;;;10.90;5.18;;;19.00;99.90;;;;;;5000082;28;20026;-67
2023/06/25 04:40:25;;;;;;;8.43;4.47;;;20.10;99.90;;;;;;5007982;28;20479;-66
2023/06/25 04:42:50;;;;;;;6.28;4.40;;;21.80;99.90;;;;;;4985606;28;20471;-67
2023/06/25 04:45:16;;;;;;;6.80;4.22;;;23.20;99.90;;;;;;4994342;28;20032;-67
2023/06/25 04:47:42;;;;;;;8.75;3.97;;;24.30;97.40;;;;;;5001506;28;20088;-67
2023/06/25 04:50:07;;;;;;;5.57;3.80;;;25.10;95.80;;;;;;4999163;28;20027;-67
2023/06/25 04:52:33;;;;;;;9.20;4.22;;;26.20;93.00;;;;;;4996358;28;20079;-67
2023/06/25 04:54:59;;;;;;;6.28;3.17;;;26.60;92.00;;;;;;4994029;28;20102;-67
2023/06/25 04:57:24;;;;;;;5.13;3.60;;;27.20;90.80;;;;;;4997686;28;20034;-66
2023/06/25 04:59:50;;;;;;;6.97;3.45;;;27.20;88.30;;;;;;4991256;28;20438;-66
2023/06/25 05:02:15;;;;;;;7.68;3.40;;;28.10;88.50;;;;;;4991524;28;20034;-66
2023/06/25 05:04:41;;;;;;;4.88;3.75;;;28.10;86.10;;;;;;5010567;28;20022;-66
2023/06/25 05:07:06;;;;;;;5.57;3.53;;;28.80;85.60;;;;;;5005061;28;20395;-66
2023/06/25 05:09:32;;;;;;;6.45;3.65;;;29.10;82.30;;;;;;4990032;28;20037;-67
2023/06/25 05:11:59;;;;;;;5.13;3.47;;;29.00;81.90;;;;;;4997290;28;20107;-67
2023/06/25 05:14:25;;;;;;;6.32;3.42;;;29.10;82.80;;;;;;4992409;28;20149;-67
2023/06/25 05:16:51;;;;;;;6.18;3.70;;;30.50;78.70;;;;;;5001914;28;20054;-67
2023/06/25 05:19:16;;;;;;;6.10;4.00;;;30.10;78.50;;;;;;5001801;28;20539;-66
2023/06/25 05:21:42;;;;;;;5.25;3.63;;;30.10;78.20;;;;;;4993938;28;20125;-66
2023/06/25 05:24:07;;;;;;;5.07;3.53;;;31.30;77.20;;;;;;4999096;28;20065;-67
2023/06/25 05:26:33;;;;;;;4.68;3.60;;;30.80;75.50;;;;;;4994854;28;20061;-67
2023/06/25 05:28:59;;;;;;;6.50;3.55;;;31.30;74.90;;;;;;5007372;28;20029;-67
2023/06/25 05:31:25;;;;;;;6.78;3.67;;;30.90;75.90;;;;;;5002782;28;20066;-67
2023/06/25 05:33:51;;;;;;;5.00;3.55;;;30.90;75.70;;;;;;5010008;28;20026;-66
2023/06/25 05:36:16;;;;;;;5.25;3.67;;;30.70;75.20;;;;;;4993508;28;20044;-67
2023/06/25 05:38:42;;;;;;;6.85;3.83;;;30.80;75.80;;;;;;4999054;28;20034;-67
2023/06/25 05:41:08;;;;;;;6.28;3.83;;;31.10;75.80;;;;;;4995956;28;20499;-67
2023/06/25 05:43:34;;;;;;;5.65;3.50;;;31.30;74.20;;;;;;5006479;28;20026;-67
2023/06/25 05:45:59;;;;;;;6.40;3.67;;;31.20;73.80;;;;;;5006672;28;20038;-67
2023/06/25 05:48:26;;;;;;;5.88;3.75;;;31.50;74.30;;;;;;5005084;28;20018;-68
2023/06/25 05:50:51;;;;;;;4.85;3.50;;;31.60;72.60;;;;;;5013249;28;20025;-67
2023/06/25 05:53:18;;;;;;;4.47;3.10;;;32.00;72.50;;;;;;4994957;28;20038;-67
2023/06/25 05:55:44;;;;;;;4.80;3.35;;;32.00;72.60;;;;;;4998454;28;20062;-66
2023/06/25 05:58:09;;;;;;;3.83;3.40;;;32.10;71.60;;;;;;5007537;28;20045;-67
2023/06/25 06:00:35;;;;;;;4.80;3.72;;;32.90;70.60;;;;;;5003081;28;20018;-67
2023/06/25 06:03:00;;;;;;;6.50;4.10;;;32.70;71.00;;;;;;4998039;28;20034;-67
2023/06/25 06:05:26;;;;;;;4.68;3.65;;;33.10;70.80;;;;;;5001085;28;20447;-66
2023/06/25 06:07:51;;;;;;;4.00;3.10;;;33.10;69.60;;;;;;4999661;28;20061;-66
2023/06/25 06:10:18;;;;;;;5.25;3.70;;;33.90;69.70;;;;;;5000734;28;20069;-67
2023/06/25 06:12:44;;;;;;;7.57;3.63;;;34.00;68.10;;;;;;5009396;28;20093;-67
2023/06/25 06:15:09;;;;;;;7.28;3.63;;;33.60;68.20;;;;;;5001879;28;20543;-67
2023/06/25 06:17:35;;;;;;;4.38;3.63;;;34.20;65.00;;;;;;5005357;28;20037;-67
2023/06/25 06:20:00;;;;;;;5.72;3.35;;;34.10;66.50;;;;;;5004548;28;20034;-67
2023/06/25 06:22:26;;;;;;;5.00;3.47;;;35.30;65.40;;;;;;4994632;28;20023;-67
2023/06/25 06:24:52;;;;;;;3.30;3.00;;;34.70;65.90;;;;;;4998323;28;20033;-67
2023/06/25 06:27:17;;;;;;;8.05;3.33;;;34.80;67.10;;;;;;5004065;28;20625;-67
2023/06/25 06:29:43;;;;;;;8.13;3.05;;;35.70;65.60;;;;;;5002466;28;20022;-67
2023/06/25 06:32:09;;;;;;;4.20;3.40;;;36.20;64.50;;;;;;5005189;28;20388;-68
2023/06/25 06:34:35;;;;;;;6.68;3.65;;;35.80;63.30;;;;;;5001989;28;20484;-67
2023/06/25 06:37:01;;;;;;;6.07;3.17;;;35.50;64.20;;;;;;5001836;28;20036;-68
2023/06/25 06:39:27;;;;;;;3.75;3.20;;;36.00;64.70;;;;;;5001964;28;20029;-67
2023/06/25 06:41:52;;;;;;;3.70;3.30;;;35.90;63.20;;;;;;5007805;28;20027;-67
2023/06/25 06:44:19;;;;;;;3.58;3.20;;;35.60;62.50;;;;;;5000149;28;20027;-68
2023/06/25 06:46:45;;;;;;;4.45;3.75;;;34.90;64.20;;;;;;4998961;28;20110;-67
2023/06/25 06:49:11;;;;;;;4.03;3.13;;;35.40;63.70;;;;;;4994405;28;20022;-67
2023/06/25 06:51:38;;;;;;;6.80;3.90;;;35.70;63.90;;;;;;4994218;28;20098;-67
2023/06/25 06:54:04;;;;;;;4.85;3.70;;;35.20;63.50;;;;;;5000678;28;20041;-68
2023/06/25 06:56:31;;;;;;;4.57;3.45;;;35.60;64.20;;;;;;5000101;28;20022;-67
2023/06/25 06:58:56;;;;;;;3.78;2.80;;;36.40;61.70;;;;;;5005396;28;20112;-67
2023/06/25 07:01:22;;;;;;;4.05;3.40;;;36.20;62.70;;;;;;4996975;28;20113;-68
2023/06/25 07:03:48;;;;;;;3.90;3.50;;;37.00;60.70;;;;;;5000386;28;20030;-68
2023/06/25 07:06:14;;;;;;;4.00;3.50;;;36.00;63.80;;;;;;4999943;28;20064;-68
2023/06/25 07:08:39;;;;;;;3.60;3.15;;;36.80;61.30;;;;;;5004524;28;20018;-68
2023/06/25 07:11:05;;;;;;;4.70;3.13;;;37.10;61.40;;;;;;4993802;28;20064;-68
2023/06/25 07:13:32;;;;;;;4.80;3.67;;;36.70;60.60;;;;;;5005640;28;20033;-68
2023/06/25 07:15:57;;;;;;;4.00;3.60;;;36.60;61.40;;;;;;4998177;28;20054;-67
2023/06/25 07:18:23;;;;;;;3.83;3.20;;;36.90;60.80;;;;;;4997408;28;20026;-68
2023/06/25 07:20:50;;;;;;;4.10;3.00;;;37.20;62.20;;;;;;5005949;28;20030;-67
2023/06/25 07:23:16;;;;;;;3.80;3.35;;;38.40;60.00;;;;;;5009202;28;20052;-68
2023/06/25 07:25:42;;;;;;;3.50;3.17;;;38.20;58.60;;;;;;4998880;28;20104;-68
2023/06/25 07:28:09;;;;;;;3.75;3.03;;;37.50;58.90;;;;;;5004936;28;20034;-68
2023/06/25 07:30:34;;;;;;;4.05;3.05;;;39.10;60.00;;;;;;4996956;28;20477;-67
2023/06/25 07:33:00;;;;;;;4.50;3.60;;;39.00;60.00;;;;;;4996425;28;20029;-68
2023/06/25 07:35:26;;;;;;;3.78;3.08;;;39.10;59.50;;;;;;5001961;28;20026;-67
2023/06/25 07:37:51;;;;;;;3.67;3.33;;;38.40;58.30;;;;;;5000184;28;20033;-68
2023/06/25 07:40:17;;;;;;;3.58;3.17;;;38.40;59.60;;;;;;5008608;28;20037;-66
2023/06/25 07:42:43;;;;;;;3.83;2.92;;;38.80;58.50;;;;;;5003459;28;20392;-66
2023/06/25 07:45:09;;;;;;;3.25;2.92;;;39.60;56.50;;;;;;4988900;28;20026;-66
2023/06/25 07:47:35;;;;;;;3.58;3.28;;;39.40;56.30;;;;;;4999494;28;20083;-66
2023/06/25 07:50:00;;;;;;;4.03;3.38;;;39.60;56.80;;;;;;4998715;28;20103;-66
2023/06/25 07:52:26;;;;;;;5.43;3.22;;;39.80;57.30;;;;;;4999096;28;20038;-66
2023/06/25 07:54:52;;;;;;;3.50;3.20;;;38.80;57.60;;;;;;4996243;28;20694;-64
2023/06/25 07:57:18;;;;;;;3.70;3.38;;;38.00;58.40;;;;;;5008854;28;20033;-67
2023/06/25 07:59:43;;;;;;;4.75;3.53;;;38.90;57.60;;;;;;5003037;28;20120;-67
2023/06/25 08:02:09;;;;;;;4.65;3.67;;;38.20;57.80;;;;;;4991240;28;20026;-66
2023/06/25 08:04:35;;;;;;;4.45;3.30;;;38.20;58.30;;;;;;4992035;28;20073;-67
2023/06/25 08:07:01;;;;;;;4.55;4.03;;;39.00;56.60;;;;;;5000077;28;20065;-67
2023/06/25 08:09:27;;;;;;;7.07;4.00;;;38.50;55.70;;;;;;4991398;28;20085;-67
2023/06/25 08:11:52;;;;;;;3.85;3.40;;;39.30;56.50;;;;;;5004119;28;20022;-67
2023/06/25 08:14:18;;;;;;;4.70;3.33;;;39.00;56.20;;;;;;4999429;28;20030;-66
2023/06/25 08:16:43;;;;;;;3.47;3.17;;;38.80;56.00;;;;;;4997713;28;20026;-66
2023/06/25 08:19:09;;;;;;;3.83;3.10;;;38.40;55.90;;;;;;4997307;28;20563;-67
2023/06/25 08:21:35;;;;;;;31.55;3.78;;;38.50;57.20;;;;;;5008663;28;20030;-66
2023/06/25 08:24:01;;;;;;;4.05;3.38;;;38.50;56.20;;;;;;5004721;28;20033;-67
2023/06/25 08:26:26;;;;;;;4.57;3.20;;;38.50;56.90;;;;;;4998602;28;20026;-66
2023/06/25 08:28:52;;;;;;;3.80;3.00;;;38.90;57.60;;;;;;5007465;28;20057;-66
2023/06/25 08:31:18;;;;;;;7.05;3.38;;;39.80;55.40;;;;;;4996027;28;20038;-66
2023/06/25 08:33:44;;;;;;;6.40;4.03;;;39.60;53.10;;;;;;5008709;28;20084;-66
2023/06/25 08:36:09;;;;;;;3.60;3.20;;;39.80;53.80;;;;;;5001698;28;20108;-66
2023/06/25 08:38:36;;;;;;;4.53;2.97;;;39.30;55.70;;;;;;5007037;28;20038;-66
2023/06/25 08:41:02;;;;;;;4.68;3.35;;;38.70;52.90;;;;;;4998282;28;20455;-66
2023/06/25 08:43:28;;;;;;;4.85;3.25;;;38.30;54.30;;;;;;4999849;28;20038;-67
2023/06/25 08:45:53;;;;;;;3.70;3.40;;;38.80;55.30;;;;;;4998664;28;20026;-66
2023/06/25 08:48:21;;;;;;;5.03;3.10;;;40.40;54.40;;;;;;4990474;28;20029;-66
2023/06/25 08:50:54;;;;;;;3.42;3.13;;;40.50;55.00;;;;;;5007580;28;20069;-66
2023/06/25 08:53:20;;;;;;;3.90;3.40;;;39.40;54.50;;;;;;4987007;28;20511;-66
2023/06/25 08:55:47;;;;;;;5.03;3.17;;;39.40;54.80;;;;;;5000831;28;20030;-66
2023/06/25 08:58:13;;;;;;;3.70;3.20;;;39.50;53.40;;;;;;4996992;28;20031;-67
2023/06/25 09:00:38;;;;;;;4.57;3.42;;;38.60;53.80;;;;;;4992051;28;20573;-66
2023/06/25 09:03:05;;;;;;;4.40;3.20;;;38.30;56.50;;;;;;5000374;28;20073;-66
2023/06/25 09:05:33;;;;;;;3.17;2.83;;;38.20;54.30;;;;;;5002214;28;20035;-67
2023/06/25 09:07:58;;;;;;;3.83;2.97;;;38.60;54.80;;;;;;4988083;28;20055;-67
2023/06/25 09:10:26;;;;;;;4.47;3.58;;;38.20;53.80;;;;;;5007245;28;20896;-67
2023/06/25 09:12:52;;;;;;;4.13;3.08;;;38.20;56.30;;;;;;5005216;28;20026;-67
2023/06/25 09:15:22;;;;;;;4.15;2.88;;;37.90;54.00;;;;;;5004181;28;20116;-67
2023/06/25 09:17:48;;;;;;;5.15;3.20;;;37.90;55.30;;;;;;5009487;28;20056;-67
2023/06/25 09:20:14;;;;;;;4.47;3.10;;;39.40;54.30;;;;;;5002786;28;20025;-66
2023/06/25 09:22:50;;;;;;;4.15;3.03;;;39.30;52.20;;;;;;4998579;28;20484;-67
2023/06/25 09:25:17;;;;;;;8.55;3.10;;;38.90;53.70;;;;;;5005492;28;20455;-67
2023/06/25 09:27:43;;;;;;;4.20;3.05;;;39.60;53.30;;;;;;5011014;28;20026;-67
2023/06/25 09:30:12;;;;;;;3.33;3.03;;;39.80;52.30;;;;;;5008822;28;20061;-67
2023/06/25 09:32:50;;;;;;;4.30;3.90;;;39.40;53.90;;;;;;5004095;28;20561;-67
2023/06/25 09:35:25;;;;;;;4.85;3.25;;;38.60;53.60;;;;;;4997091;28;20446;-67
2023/06/25 09:37:51;;;;;;;3.35;3.00;;;38.80;55.10;;;;;;4999865;28;20423;-67
2023/06/25 09:40:17;;;;;;;7.20;3.08;;;39.20;52.20;;;;;;4999660;28;20498;-67
2023/06/25 09:42:44;;;;;;;3.63;3.10;;;39.30;51.90;;;;;;5007178;28;20052;-66
2023/06/25 09:45:14;;;;;;;3.88;3.35;;;38.20;52.40;;;;;;5005050;28;20022;-66
2023/06/25 09:47:42;;;;;;;4.03;2.95;;;37.60;53.10;;;;;;4995797;28;20030;-66
2023/06/25 09:50:23;;;;;;;5.90;3.28;;;37.60;54.40;;;;;;4995148;28;20038;-66
2023/06/25 09:52:59;;;;;;;4.57;3.37;;;37.90;54.30;;;;;;4993444;28;20026;-66
2023/06/25 09:55:27;;;;;;;3.65;3.17;;;38.80;53.60;;;;;;5008467;28;20018;-66
2023/06/25 09:57:54;;;;;;;4.30;3.47;;;39.00;53.90;;;;;;5007891;28;20384;-66
2023/06/25 10:00:22;;;;;;;4.50;3.58;;;39.50;52.40;;;;;;5005066;28;20361;-66
2023/06/25 10:02:48;;;;;;;10.45;3.33;;;38.70;54.20;;;;;;4992483;28;20062;-65
2023/06/25 10:05:14;;;;;;;5.28;4.00;;;39.00;54.40;;;;;;4999774;28;20026;-66
2023/06/25 10:07:41;;;;;;;4.93;3.30;;;39.40;52.50;;;;;;4995004;28;20491;-66
2023/06/25 10:10:07;;;;;;;3.13;2.80;;;38.60;52.70;;;;;;5008261;28;20419;-65
2023/06/25 10:12:36;;;;;;;3.88;3.20;;;38.20;54.20;;;;;;4996689;28;20031;-66
2023/06/25 10:15:04;;;;;;;3.20;2.90;;;37.30;53.00;;;;;;4999220;28;20110;-67
2023/06/25 10:17:30;;;;;;;3.70;3.33;;;37.00;53.60;;;;;;5001041;28;20038;-66
2023/06/25 10:19:58;;;;;;;3.85;3.00;;;36.50;53.20;;;;;;5000781;28;20026;-67
2023/06/25 10:22:24;;;;;;;5.88;2.83;;;36.10;55.00;;;;;;5001310;28;20026;-66
2023/06/25 10:24:52;;;;;;;4.18;3.00;;;35.70;57.10;;;;;;5005722;28;20600;-67
2023/06/25 10:27:23;;;;;;;5.68;3.30;;;35.10;57.00;;;;;;5004772;28;20041;-66
2023/06/25 10:29:49;;;;;;;6.03;3.63;;;34.80;58.20;;;;;;4996608;28;20072;-67
2023/06/25 10:32:22;;;;;;;4.45;3.33;;;34.70;57.00;;;;;;4996053;28;20163;-66
2023/06/25 10:35:01;;;;;;;4.20;3.15;;;34.60;58.80;;;;;;4998698;28;20022;-67
2023/06/25 10:37:34;;;;;;;7.93;3.15;;;34.60;58.90;;;;;;5003463;28;20594;-67
2023/06/25 10:40:07;;;;;;;3.65;2.72;;;34.40;58.80;;;;;;4997150;28;20033;-66
2023/06/25 10:42:35;;;;;;;6.22;3.20;;;34.20;57.20;;;;;;4996293;28;20109;-66
2023/06/25 10:45:01;;;;;;;3.83;2.95;;;34.40;58.70;;;;;;5003390;28;20026;-67
2023/06/25 10:47:27;;;;;;;3.30;2.70;;;34.40;56.70;;;;;;5004146;28;20108;-66
2023/06/25 10:49:53;;;;;;;4.28;3.40;;;34.20;58.20;;;;;;5001402;28;20058;-67
2023/06/25 10:52:20;;;;;;;4.10;2.72;;;34.20;57.20;;;;;;5006963;28;20494;-67
2023/06/25 10:54:45;;;;;;;4.32;3.10;;;34.10;55.60;;;;;;4994947;28;20034;-67
2023/06/25 10:57:13;;;;;;;4.00;2.67;;;33.90;55.80;;;;;;5006708;28;20026;-67
2023/06/25 10:59:39;;;;;;;3.33;2.38;;;33.70;56.40;;;;;;4995594;28;20042;-66
2023/06/25 11:02:23;;;;;;;4.57;3.10;;;33.60;55.80;;;;;;4993997;28;20512;-66
2023/06/25 11:04:54;;;;;;;4.53;2.88;;;33.60;58.50;;;;;;5009182;28;20034;-66
2023/06/25 11:07:20;;;;;;;4.13;3.15;;;33.80;56.90;;;;;;5000328;28;20030;-66
2023/06/25 11:09:59;;;;;;;4.20;2.83;;;33.70;55.50;;;;;;5009511;28;20026;-67
2023/06/25 11:12:25;;;;;;;3.92;2.85;;;33.80;56.60;;;;;;4999962;28;20030;-66
2023/06/25 11:14:51;;;;;;;5.50;2.95;;;33.80;56.90;;;;;;5002849;28;20032;-66
2023/06/25 11:17:17;;;;;;;4.22;2.70;;;33.60;56.00;;;;;;4996137;28;20574;-66
2023/06/25 11:19:49;;;;;;;5.07;3.13;;;33.70;56.50;;;;;;5002427;28;20034;-67
2023/06/25 11:22:14;;;;;;;7.68;3.08;;;33.30;57.70;;;;;;5007602;28;20071;-67
2023/06/25 11:24:40;;;;;;;3.75;2.90;;;33.30;58.50;;;;;;5001322;28;20030;-67
2023/06/25 11:27:06;;;;;;;3.78;2.88;;;33.40;58.20;;;;;;5001786;28;20121;-66
2023/06/25 11:29:40;;;;;;;4.15;3.10;;;33.30;57.80;;;;;;5000455;28;20021;-67
2023/06/25 11:32:11;;;;;;;4.85;3.28;;;33.00;57.20;;;;;;5011117;28;20105;-67
2023/06/25 11:34:42;;;;;;;4.60;3.30;;;33.20;57.80;;;;;;4987912;28;20163;-67
2023/06/25 11:37:13;;;;;;;5.32;3.17;;;33.10;58.20;;;;;;5008951;23;21427;-68
2023/06/25 11:39:46;;;;;;;4.07;2.92;;;32.90;59.10;;;;;;5000939;28;20407;-68
2023/06/25 11:42:16;;;;;;;;;;;32.90;59.80;;;;;;4999861;28;20053;-68
2023/06/25 11:44:41;;;;;;;4.22;3.15;;;33.00;60.20;;;;;;5000032;28;20338;-67
2023/06/25 11:47:08;;;;;;;7.40;3.03;;;33.00;57.70;;;;;;5002989;28;20026;-67
2023/06/25 11:49:34;;;;;;;4.55;3.03;;;32.80;57.90;;;;;;4984135;28;20729;-67
2023/06/25 11:51:59;;;;;;;5.40;2.97;;;32.80;60.00;;;;;;4997720;28;20066;-67
2023/06/25 11:54:25;;;;;;;6.32;3.28;;;32.60;60.60;;;;;;4990135;28;20424;-67
2023/06/25 11:56:51;;;;;;;3.28;2.63;;;32.50;59.20;;;;;;5008647;28;20034;-67
2023/06/25 11:59:16;;;;;;;6.45;3.30;;;32.30;59.30;;;;;;4994422;28;20189;-68
2023/06/25 12:01:42;;;;;;;6.45;2.80;;;32.30;58.50;;;;;;4985951;28;20034;-67
2023/06/25 12:04:07;;;;;;;3.88;2.97;;;32.50;60.80;;;;;;5007818;28;20038;-67
2023/06/25 12:06:33;;;;;;;2.83;2.50;;;32.30;58.20;;;;;;4977998;28;20026;-67
2023/06/25 12:08:58;;;;;;;6.07;3.03;;;32.10;57.30;;;;;;4992733;28;20473;-68
2023/06/25 12:11:24;;;;;;;5.18;3.20;;;32.30;57.80;;;;;;4985861;28;20396;-67
2023/06/25 12:13:50;;;;;;;4.97;3.40;;;32.10;59.30;;;;;;4979719;28;20106;-68
2023/06/25 12:16:15;;;;;;;4.55;3.20;;;31.90;58.90;;;;;;4988919;28;20031;-67
2023/06/25 12:18:41;;;;;;;4.90;3.10;;;31.70;59.40;;;;;;4987265;28;20463;-67
2023/06/25 12:21:06;;;;;;;4.63;2.80;;;31.70;61.30;;;;;;4998688;28;20399;-67
2023/06/25 12:23:32;;;;;;;3.92;3.13;;;31.80;60.60;;;;;;5001009;28;20048;-67
2023/06/25 12:25:57;;;;;;;5.90;3.10;;;31.90;61.40;;;;;;4990662;28;20515;-67
2023/06/25 12:28:23;;;;;;;4.18;3.05;;;31.90;61.20;;;;;;4990867;28;20048;-68
2023/06/25 12:30:48;;;;;;;3.58;2.95;;;32.00;60.40;;;;;;4990916;28;20026;-68
2023/06/25 12:33:14;;;;;;;4.18;3.13;;;31.80;61.00;;;;;;4988964;28;20023;-68
2023/06/25 12:35:40;;;;;;;3.78;3.08;;;31.70;61.10;;;;;;4980482;28;20030;-68
2023/06/25 12:38:05;;;;;;;4.10;2.95;;;31.60;62.50;;;;;;4991016;28;20117;-67
2023/06/25 12:40:31;;;;;;;4.20;2.92;;;31.60;61.40;;;;;;4982168;28;20488;-67
2023/06/25 12:42:56;;;;;;;3.10;2.35;;;31.50;60.50;;;;;;5004271;28;20097;-68
2023/06/25 12:45:22;;;;;;;4.63;2.58;;;31.70;62.20;;;;;;4988741;28;20038;-67